Flight Track Log - Related Links

Times and Time Zones

All times are in EDT time to prevent confusion due to time zone crossing. See the EJA831 flight status page for this flight to view local times or setup timezone preferences in your user account.

Time Position Orientation Groundspeed Altitude Reporting Facility
EDT Latitude Longitude Course Direction KTS MPH feet Rate Location/Type
Sat 12:30:16 PM 40.8681 -85.2058 249° West 260 299 9,500  Level Chicago Center
Sat 12:31:18 PM 40.8408 -85.3111 251° West 295 339 10,000 242 Climbing Chicago Center
Sat 12:32:20 PM 40.8106 -85.4269 251° West 324 373 10,000  Level Chicago Center
Sat 12:33:07 PM 40.7842 -85.5364 252° West 324 373 10,000  Level Chicago Center
Sat 12:33:55 PM 40.7611 -85.6258 251° West 319 367 10,000  Level Chicago Center
Sat 12:34:00 PM 40.8040 -85.6891 244° Southwest  Level FlightAware Approximate
Sat 12:34:23 PM 40.7475 -85.6728 249° West 321 369 10,000  Level Chicago Center
Sat 12:34:56 PM 40.7308 -85.7394 252° West 320 368 10,000  Level Chicago Center
Sat 12:35:00 PM 40.7783 -85.7741 249° West  Level FlightAware Approximate
Sat 12:35:25 PM 40.7192 -85.7839 251° West 320 368 10,000  Level Chicago Center
Sat 12:35:50 PM 40.7050 -85.8397 252° West 321 369 10,000  Level Chicago Center
Sat 12:36:27 PM 40.6894 -85.8969 250° West 324 373 10,000 -197 Level Chicago Center
Sat 12:36:51 PM 40.6767 -85.9453 251° West 317 365 9,800 -1,279 Descending Chicago Center
Sat 12:37:28 PM 40.6622 -86.0042 252° West 295 339 8,700 -1,770 Descending Chicago Center
Sat 12:37:52 PM 40.6506 -86.0453 250° West 280 322 8,000 -1,645 Descending Chicago Center
Sat 12:38:30 PM 40.6378 -86.0969 252° West 271 312 7,000 -1,700 Descending Chicago Center
Sat 12:38:52 PM 40.6269 -86.1342 249° West 271 312 6,300 -1,645 Descending Chicago Center
Sat 12:39:32 PM 40.6133 -86.1919 253° West 271 312 5,300 -1,770 Descending Chicago Center
Sat 12:39:53 PM 40.6008 -86.2342 249° West 271 312 4,500 -1,645 Descending Chicago Center
Sat 12:40:34 PM 40.5892 -86.2842 253° West 270 311 3,600 -1,400 Descending Chicago Center
Sat 12:40:53 PM 40.5769 -86.3231 248° West 267 307 3,100 -590 Descending Chicago Center
Sat 12:41:35 PM 40.5608 -86.3908 253° West 266 306 3,000 -90 Descending Chicago Center
Sat 12:42:00 PM 40.5483 -86.4281 246° West 270 311 3,000  Level Chicago Center
Sat 12:42:37 PM 40.5358 -86.4856 254° West 268 308 3,000  Level Chicago Center
Sat 12:43:01 PM 40.5222 -86.5250 246° West 270 311 3,000  Level Chicago Center
Sat 12:43:39 PM 40.5103 -86.5789 254° West 270 311 3,000  Level Chicago Center
Sat 12:44:01 PM 40.4981 -86.6139 245° Southwest 269 310 3,000  Level Chicago Center
Sat 12:44:40 PM 40.4853 -86.6711 254° West 269 310 3,000  Level Chicago Center
Sat 12:45:02 PM 40.4736 -86.7106 249° West 269 310 3,000 -97 Level Chicago Center
Sat 12:45:42 PM 40.4603 -86.7633 252° West 269 310 2,900 -727 Descending Chicago Center
Sat 12:46:08 PM 40.4531 -86.8133 259° West 255 293 2,200 -194 Descending Chicago Center
Sat 12:46:44 PM 40.4364 -86.8497 239° Southwest 268 308 2,700  Climbing Chicago Center
Sat 12:47:09 PM 40.4525 -86.8869 300° West 212 244 2,200 -349 Descending Chicago Center
Sat 12:48:10 PM 40.4433 -86.9575 260° West 188 216 2,200 -446 Level Chicago Center
Sat 12:49:10 PM 40.4194 -86.9831 219° Southwest 141 162 1,300 -900 Descending Chicago Center

Login

Don't have an account? Register now (free) for customized features, flight alerts, and more!